Airfield :
LOGIN :

Register | Disclaimer

   EN    FR    IT 

 










Legend :    VFR   Marginal VFR   IFR   Intensive IFR   Very Intensive IFR
Visi :
Ceiling :
>= 8 km
>= 3000ft
5 to 8 km
1000 to 3000 ft
1500m to 5 km
500 to 1000 ft
800 to 1500m
200 to 500 ft
< 800m
< 200 ft
Symbols :   Thunderstorms  Fog  Heavy snow  Heavy precipitations  Wind > 20 kt
SIGMETs :     Misc.  Thunderstorms  Icing  Turbulence  Mountain Waves  Volcanic Ashes






- Airport Elevation : 741 ft
- IATA code : JKG


ESGJ - Jönköping

CURRENT METAR :
  • 250150Z AUTO VRB02KT 0300 R01/1000D R19/P1500N BCFG NCD 06/06 Q1002

EXPIRED METARs :
  • 250120Z AUTO 17005KT 0300 R01/P1500N R19/P1500N BCFG NCD 06/05 Q1003
  • 250050Z AUTO 20003KT 0450 R01/1200D R19/P1500N BCFG NCD 06/06 Q1002
  • 250020Z AUTO 18003KT 4400 BR NCD 07/07 Q1003
  • 242350Z 18004KT CAVOK 08/07 Q1003
  • 242320Z 19005KT CAVOK 06/06 Q1003

Expired Forecast.



MET'MAP, your aeronautical weather chart ! - Copyright ORBIFLY December 2007 - Disclaimer

ORBIFLY MET'MAP TEAM :

Programming & Development : Alexandra Zaïnal
Concept & original design : Baudouin d'Aumeries
Assistance for programming : Marc-Olivier Méhu
Technical & hardware support : Manuel Goepfert

Contact : metmap@orbifly.com




SOURCES & CREDITS :

   NOAA